sensor_id;sensor_type;location;lat;lon;timestamp;P1;durP1;ratioP1;P2;durP2;ratioP2
75823;SDS011;64457;51.976;9.834;2023-07-29T00:02:13;5.87;;;1.90;;
75823;SDS011;64457;51.976;9.834;2023-07-29T00:04:41;9.23;;;2.07;;
75823;SDS011;64457;51.976;9.834;2023-07-29T00:07:09;5.87;;;1.97;;
75823;SDS011;64457;51.976;9.834;2023-07-29T00:09:36;7.20;;;1.97;;
75823;SDS011;64457;51.976;9.834;2023-07-29T00:12:04;7.37;;;2.13;;
75823;SDS011;64457;51.976;9.834;2023-07-29T00:14:34;6.03;;;2.00;;
75823;SDS011;64457;51.976;9.834;2023-07-29T00:17:02;6.07;;;2.17;;
75823;SDS011;64457;51.976;9.834;2023-07-29T00:19:30;5.90;;;2.03;;
75823;SDS011;64457;51.976;9.834;2023-07-29T00:21:59;6.73;;;2.03;;
75823;SDS011;64457;51.976;9.834;2023-07-29T00:24:26;9.53;;;2.50;;
75823;SDS011;64457;51.976;9.834;2023-07-29T00:26:54;9.63;;;2.10;;
75823;SDS011;64457;51.976;9.834;2023-07-29T00:29:22;11.13;;;4.43;;
75823;SDS011;64457;51.976;9.834;2023-07-29T00:31:52;7.87;;;2.90;;
75823;SDS011;64457;51.976;9.834;2023-07-29T00:34:19;5.90;;;1.73;;
75823;SDS011;64457;51.976;9.834;2023-07-29T00:36:47;5.47;;;1.70;;
75823;SDS011;64457;51.976;9.834;2023-07-29T00:39:15;7.47;;;1.70;;
75823;SDS011;64457;51.976;9.834;2023-07-29T00:41:44;5.73;;;1.60;;
75823;SDS011;64457;51.976;9.834;2023-07-29T00:44:12;5.80;;;1.90;;
75823;SDS011;64457;51.976;9.834;2023-07-29T00:46:39;5.87;;;1.67;;
75823;SDS011;64457;51.976;9.834;2023-07-29T00:49:09;6.93;;;1.60;;
75823;SDS011;64457;51.976;9.834;2023-07-29T00:51:37;8.07;;;2.03;;
75823;SDS011;64457;51.976;9.834;2023-07-29T00:54:04;8.23;;;1.93;;
75823;SDS011;64457;51.976;9.834;2023-07-29T00:56:32;7.13;;;2.10;;
75823;SDS011;64457;51.976;9.834;2023-07-29T00:59:01;5.63;;;1.87;;
75823;SDS011;64457;51.976;9.834;2023-07-29T01:01:29;6.27;;;1.87;;
75823;SDS011;64457;51.976;9.834;2023-07-29T01:03:57;5.67;;;1.83;;
75823;SDS011;64457;51.976;9.834;2023-07-29T01:06:46;5.30;;;1.77;;
75823;SDS011;64457;51.976;9.834;2023-07-29T01:12:45;7.87;;;2.07;;
75823;SDS011;64457;51.976;9.834;2023-07-29T01:15:21;15.13;;;2.37;;
75823;SDS011;64457;51.976;9.834;2023-07-29T01:17:59;6.30;;;2.07;;
75823;SDS011;64457;51.976;9.834;2023-07-29T01:20:37;6.00;;;1.90;;
75823;SDS011;64457;51.976;9.834;2023-07-29T01:23:11;5.67;;;1.70;;
75823;SDS011;64457;51.976;9.834;2023-07-29T01:25:41;5.77;;;2.10;;
75823;SDS011;64457;51.976;9.834;2023-07-29T01:28:12;7.40;;;2.20;;
75823;SDS011;64457;51.976;9.834;2023-07-29T01:30:40;7.17;;;1.90;;
75823;SDS011;64457;51.976;9.834;2023-07-29T01:33:14;6.97;;;2.50;;
75823;SDS011;64457;51.976;9.834;2023-07-29T01:35:46;5.47;;;2.00;;
75823;SDS011;64457;51.976;9.834;2023-07-29T01:38:21;7.10;;;1.90;;
75823;SDS011;64457;51.976;9.834;2023-07-29T01:43:46;7.90;;;1.77;;
75823;SDS011;64457;51.976;9.834;2023-07-29T01:46:17;6.50;;;2.10;;
75823;SDS011;64457;51.976;9.834;2023-07-29T01:48:53;6.47;;;2.00;;
75823;SDS011;64457;51.976;9.834;2023-07-29T01:51:21;5.50;;;1.90;;
75823;SDS011;64457;51.976;9.834;2023-07-29T01:53:53;6.70;;;2.53;;
75823;SDS011;64457;51.976;9.834;2023-07-29T01:56:33;5.70;;;1.90;;
75823;SDS011;64457;51.976;9.834;2023-07-29T01:59:05;6.20;;;2.23;;
75823;SDS011;64457;51.976;9.834;2023-07-29T02:01:33;10.10;;;2.20;;
75823;SDS011;64457;51.976;9.834;2023-07-29T02:04:03;11.30;;;2.30;;
75823;SDS011;64457;51.976;9.834;2023-07-29T02:06:31;5.63;;;2.07;;
75823;SDS011;64457;51.976;9.834;2023-07-29T02:09:00;5.80;;;2.23;;
75823;SDS011;64457;51.976;9.834;2023-07-29T02:11:37;8.07;;;2.43;;
75823;SDS011;64457;51.976;9.834;2023-07-29T02:14:11;6.27;;;1.70;;
75823;SDS011;64457;51.976;9.834;2023-07-29T02:16:43;5.60;;;1.60;;
75823;SDS011;64457;51.976;9.834;2023-07-29T02:19:11;5.77;;;2.00;;
75823;SDS011;64457;51.976;9.834;2023-07-29T02:21:39;6.10;;;1.80;;
75823;SDS011;64457;51.976;9.834;2023-07-29T02:24:09;5.80;;;1.97;;
75823;SDS011;64457;51.976;9.834;2023-07-29T02:26:43;5.93;;;2.23;;
75823;SDS011;64457;51.976;9.834;2023-07-29T02:29:13;5.60;;;1.87;;
75823;SDS011;64457;51.976;9.834;2023-07-29T02:31:44;9.97;;;2.57;;
75823;SDS011;64457;51.976;9.834;2023-07-29T02:34:15;5.60;;;1.93;;
75823;SDS011;64457;51.976;9.834;2023-07-29T02:36:46;5.70;;;1.80;;
75823;SDS011;64457;51.976;9.834;2023-07-29T02:39:14;6.20;;;1.90;;
75823;SDS011;64457;51.976;9.834;2023-07-29T02:41:45;5.57;;;1.70;;
75823;SDS011;64457;51.976;9.834;2023-07-29T02:44:13;5.40;;;1.87;;
75823;SDS011;64457;51.976;9.834;2023-07-29T02:46:42;5.53;;;1.80;;
75823;SDS011;64457;51.976;9.834;2023-07-29T02:49:10;5.80;;;2.00;;
75823;SDS011;64457;51.976;9.834;2023-07-29T02:51:37;5.90;;;2.00;;
75823;SDS011;64457;51.976;9.834;2023-07-29T02:54:05;7.07;;;2.00;;
75823;SDS011;64457;51.976;9.834;2023-07-29T02:56:33;11.53;;;2.30;;
75823;SDS011;64457;51.976;9.834;2023-07-29T02:59:02;6.83;;;1.87;;
75823;SDS011;64457;51.976;9.834;2023-07-29T03:01:30;7.80;;;2.30;;
75823;SDS011;64457;51.976;9.834;2023-07-29T03:03:58;6.10;;;2.27;;
75823;SDS011;64457;51.976;9.834;2023-07-29T03:06:27;7.97;;;2.20;;
75823;SDS011;64457;51.976;9.834;2023-07-29T03:08:55;8.43;;;2.40;;
75823;SDS011;64457;51.976;9.834;2023-07-29T03:11:22;6.30;;;2.23;;
75823;SDS011;64457;51.976;9.834;2023-07-29T03:13:50;6.90;;;1.90;;
75823;SDS011;64457;51.976;9.834;2023-07-29T03:16:18;5.60;;;1.80;;
75823;SDS011;64457;51.976;9.834;2023-07-29T03:18:48;8.47;;;2.10;;
75823;SDS011;64457;51.976;9.834;2023-07-29T03:21:18;6.53;;;2.07;;
75823;SDS011;64457;51.976;9.834;2023-07-29T03:23:46;6.13;;;1.97;;
75823;SDS011;64457;51.976;9.834;2023-07-29T03:26:14;6.97;;;2.20;;
75823;SDS011;64457;51.976;9.834;2023-07-29T03:28:42;7.00;;;2.47;;
75823;SDS011;64457;51.976;9.834;2023-07-29T03:31:10;12.83;;;2.30;;
75823;SDS011;64457;51.976;9.834;2023-07-29T03:33:39;9.37;;;2.47;;
75823;SDS011;64457;51.976;9.834;2023-07-29T03:36:06;5.40;;;2.00;;
75823;SDS011;64457;51.976;9.834;2023-07-29T03:38:34;6.53;;;1.90;;
75823;SDS011;64457;51.976;9.834;2023-07-29T03:41:05;6.77;;;2.17;;
75823;SDS011;64457;51.976;9.834;2023-07-29T03:43:33;10.00;;;2.10;;
75823;SDS011;64457;51.976;9.834;2023-07-29T03:46:01;5.67;;;2.13;;
75823;SDS011;64457;51.976;9.834;2023-07-29T03:48:28;5.90;;;2.30;;
75823;SDS011;64457;51.976;9.834;2023-07-29T03:50:58;5.73;;;2.10;;
75823;SDS011;64457;51.976;9.834;2023-07-29T03:53:25;7.23;;;2.20;;
75823;SDS011;64457;51.976;9.834;2023-07-29T03:55:53;6.13;;;2.20;;
75823;SDS011;64457;51.976;9.834;2023-07-29T03:58:20;6.03;;;2.10;;
75823;SDS011;64457;51.976;9.834;2023-07-29T04:00:49;8.10;;;2.40;;
75823;SDS011;64457;51.976;9.834;2023-07-29T04:03:17;8.00;;;2.07;;
75823;SDS011;64457;51.976;9.834;2023-07-29T04:05:44;7.67;;;2.17;;
75823;SDS011;64457;51.976;9.834;2023-07-29T04:08:13;5.80;;;2.13;;
75823;SDS011;64457;51.976;9.834;2023-07-29T04:10:41;9.10;;;1.80;;
75823;SDS011;64457;51.976;9.834;2023-07-29T04:13:08;6.13;;;2.20;;
75823;SDS011;64457;51.976;9.834;2023-07-29T04:15:36;8.03;;;2.30;;
75823;SDS011;64457;51.976;9.834;2023-07-29T04:18:03;6.33;;;2.43;;
75823;SDS011;64457;51.976;9.834;2023-07-29T04:20:31;5.80;;;2.03;;
75823;SDS011;64457;51.976;9.834;2023-07-29T04:22:59;6.70;;;2.27;;
75823;SDS011;64457;51.976;9.834;2023-07-29T04:25:29;6.00;;;2.20;;
75823;SDS011;64457;51.976;9.834;2023-07-29T04:27:57;9.03;;;2.67;;
75823;SDS011;64457;51.976;9.834;2023-07-29T04:30:24;6.73;;;2.50;;
75823;SDS011;64457;51.976;9.834;2023-07-29T04:32:52;6.40;;;2.40;;
75823;SDS011;64457;51.976;9.834;2023-07-29T04:35:19;5.70;;;2.03;;
75823;SDS011;64457;51.976;9.834;2023-07-29T04:37:47;7.83;;;2.70;;
75823;SDS011;64457;51.976;9.834;2023-07-29T04:40:15;5.97;;;2.20;;
75823;SDS011;64457;51.976;9.834;2023-07-29T04:42:44;6.10;;;2.20;;
75823;SDS011;64457;51.976;9.834;2023-07-29T04:45:12;5.80;;;1.90;;
75823;SDS011;64457;51.976;9.834;2023-07-29T04:47:42;5.90;;;2.37;;
75823;SDS011;64457;51.976;9.834;2023-07-29T04:50:10;5.70;;;2.10;;
75823;SDS011;64457;51.976;9.834;2023-07-29T04:52:38;5.97;;;2.30;;
75823;SDS011;64457;51.976;9.834;2023-07-29T04:55:06;7.27;;;2.20;;
75823;SDS011;64457;51.976;9.834;2023-07-29T04:57:36;8.73;;;2.17;;
75823;SDS011;64457;51.976;9.834;2023-07-29T05:00:06;6.37;;;2.50;;
75823;SDS011;64457;51.976;9.834;2023-07-29T05:02:35;6.10;;;2.30;;
75823;SDS011;64457;51.976;9.834;2023-07-29T05:05:03;7.00;;;2.27;;
75823;SDS011;64457;51.976;9.834;2023-07-29T05:07:31;7.67;;;2.50;;
75823;SDS011;64457;51.976;9.834;2023-07-29T05:09:59;6.43;;;2.50;;
75823;SDS011;64457;51.976;9.834;2023-07-29T05:12:26;13.30;;;2.67;;
75823;SDS011;64457;51.976;9.834;2023-07-29T05:14:54;7.47;;;2.70;;
75823;SDS011;64457;51.976;9.834;2023-07-29T05:17:23;6.00;;;2.10;;
75823;SDS011;64457;51.976;9.834;2023-07-29T05:19:51;7.53;;;2.43;;
75823;SDS011;64457;51.976;9.834;2023-07-29T05:22:21;5.87;;;2.43;;
75823;SDS011;64457;51.976;9.834;2023-07-29T05:24:50;9.13;;;2.50;;
75823;SDS011;64457;51.976;9.834;2023-07-29T05:27:18;6.53;;;2.67;;
75823;SDS011;64457;51.976;9.834;2023-07-29T05:29:45;7.50;;;2.57;;
75823;SDS011;64457;51.976;9.834;2023-07-29T05:32:13;6.30;;;2.50;;
75823;SDS011;64457;51.976;9.834;2023-07-29T05:34:44;6.73;;;2.67;;
75823;SDS011;64457;51.976;9.834;2023-07-29T05:37:12;6.33;;;2.83;;
75823;SDS011;64457;51.976;9.834;2023-07-29T05:39:41;6.00;;;2.40;;
75823;SDS011;64457;51.976;9.834;2023-07-29T05:42:09;8.27;;;2.80;;
75823;SDS011;64457;51.976;9.834;2023-07-29T05:44:37;9.40;;;2.77;;
75823;SDS011;64457;51.976;9.834;2023-07-29T05:47:04;8.47;;;2.67;;
75823;SDS011;64457;51.976;9.834;2023-07-29T05:49:32;7.43;;;3.00;;
75823;SDS011;64457;51.976;9.834;2023-07-29T05:52:04;8.20;;;2.60;;
75823;SDS011;64457;51.976;9.834;2023-07-29T05:54:33;7.20;;;3.10;;
75823;SDS011;64457;51.976;9.834;2023-07-29T05:57:00;12.00;;;2.30;;
75823;SDS011;64457;51.976;9.834;2023-07-29T05:59:28;7.07;;;2.40;;
75823;SDS011;64457;51.976;9.834;2023-07-29T06:01:56;8.10;;;2.40;;
75823;SDS011;64457;51.976;9.834;2023-07-29T06:04:23;6.30;;;2.40;;
75823;SDS011;64457;51.976;9.834;2023-07-29T06:06:51;7.27;;;2.20;;
75823;SDS011;64457;51.976;9.834;2023-07-29T06:09:22;6.60;;;2.30;;
75823;SDS011;64457;51.976;9.834;2023-07-29T06:11:50;6.90;;;1.87;;
75823;SDS011;64457;51.976;9.834;2023-07-29T06:14:18;6.03;;;2.10;;
75823;SDS011;64457;51.976;9.834;2023-07-29T06:16:45;6.73;;;1.97;;
75823;SDS011;64457;51.976;9.834;2023-07-29T06:19:13;6.33;;;2.07;;
75823;SDS011;64457;51.976;9.834;2023-07-29T06:21:40;5.70;;;2.00;;
75823;SDS011;64457;51.976;9.834;2023-07-29T06:24:09;4.97;;;1.50;;
75823;SDS011;64457;51.976;9.834;2023-07-29T06:26:38;5.20;;;1.60;;
75823;SDS011;64457;51.976;9.834;2023-07-29T06:29:05;4.90;;;1.40;;
75823;SDS011;64457;51.976;9.834;2023-07-29T06:31:33;5.90;;;1.30;;
75823;SDS011;64457;51.976;9.834;2023-07-29T06:34:01;4.60;;;1.13;;
75823;SDS011;64457;51.976;9.834;2023-07-29T06:36:29;5.20;;;1.53;;
75823;SDS011;64457;51.976;9.834;2023-07-29T06:38:57;8.93;;;1.20;;
75823;SDS011;64457;51.976;9.834;2023-07-29T06:41:24;8.40;;;1.20;;
75823;SDS011;64457;51.976;9.834;2023-07-29T06:43:53;5.20;;;1.10;;
75823;SDS011;64457;51.976;9.834;2023-07-29T06:46:21;4.80;;;1.00;;
75823;SDS011;64457;51.976;9.834;2023-07-29T06:48:49;9.07;;;0.90;;
75823;SDS011;64457;51.976;9.834;2023-07-29T06:51:18;5.67;;;1.00;;
75823;SDS011;64457;51.976;9.834;2023-07-29T06:53:46;4.90;;;1.03;;
75823;SDS011;64457;51.976;9.834;2023-07-29T06:56:13;4.60;;;1.10;;
75823;SDS011;64457;51.976;9.834;2023-07-29T06:58:41;5.10;;;0.93;;
75823;SDS011;64457;51.976;9.834;2023-07-29T07:01:10;4.10;;;0.73;;
75823;SDS011;64457;51.976;9.834;2023-07-29T07:03:38;4.77;;;0.80;;
75823;SDS011;64457;51.976;9.834;2023-07-29T07:06:05;4.53;;;0.83;;
75823;SDS011;64457;51.976;9.834;2023-07-29T07:08:35;4.30;;;0.90;;
75823;SDS011;64457;51.976;9.834;2023-07-29T07:11:03;5.83;;;1.33;;
75823;SDS011;64457;51.976;9.834;2023-07-29T07:13:30;4.70;;;0.90;;
75823;SDS011;64457;51.976;9.834;2023-07-29T07:15:58;4.50;;;1.00;;
75823;SDS011;64457;51.976;9.834;2023-07-29T07:18:26;4.33;;;1.03;;
75823;SDS011;64457;51.976;9.834;2023-07-29T07:20:54;4.53;;;0.90;;
75823;SDS011;64457;51.976;9.834;2023-07-29T07:23:24;5.40;;;0.90;;
75823;SDS011;64457;51.976;9.834;2023-07-29T07:25:52;4.50;;;1.00;;
75823;SDS011;64457;51.976;9.834;2023-07-29T07:28:21;4.80;;;1.03;;
75823;SDS011;64457;51.976;9.834;2023-07-29T07:30:51;6.20;;;1.00;;
75823;SDS011;64457;51.976;9.834;2023-07-29T07:33:21;4.67;;;1.20;;
75823;SDS011;64457;51.976;9.834;2023-07-29T07:35:50;4.60;;;1.00;;
75823;SDS011;64457;51.976;9.834;2023-07-29T07:38:17;4.80;;;1.30;;
75823;SDS011;64457;51.976;9.834;2023-07-29T07:40:52;4.83;;;1.40;;
75823;SDS011;64457;51.976;9.834;2023-07-29T07:43:21;4.80;;;1.40;;
75823;SDS011;64457;51.976;9.834;2023-07-29T07:45:49;4.90;;;1.47;;
75823;SDS011;64457;51.976;9.834;2023-07-29T07:48:17;7.07;;;1.53;;
75823;SDS011;64457;51.976;9.834;2023-07-29T07:50:45;4.80;;;1.47;;
75823;SDS011;64457;51.976;9.834;2023-07-29T07:53:14;4.90;;;1.40;;
75823;SDS011;64457;51.976;9.834;2023-07-29T07:55:42;4.87;;;1.37;;
75823;SDS011;64457;51.976;9.834;2023-07-29T07:58:09;5.13;;;1.40;;
75823;SDS011;64457;51.976;9.834;2023-07-29T08:00:37;5.20;;;1.50;;
75823;SDS011;64457;51.976;9.834;2023-07-29T08:03:05;5.70;;;1.50;;
75823;SDS011;64457;51.976;9.834;2023-07-29T08:05:33;4.80;;;1.33;;
75823;SDS011;64457;51.976;9.834;2023-07-29T08:08:00;4.70;;;0.97;;
75823;SDS011;64457;51.976;9.834;2023-07-29T08:10:31;4.37;;;1.10;;
75823;SDS011;64457;51.976;9.834;2023-07-29T08:12:59;4.80;;;1.10;;
75823;SDS011;64457;51.976;9.834;2023-07-29T08:15:27;4.60;;;1.00;;
75823;SDS011;64457;51.976;9.834;2023-07-29T08:17:54;5.10;;;1.13;;
75823;SDS011;64457;51.976;9.834;2023-07-29T08:20:22;6.27;;;1.40;;
75823;SDS011;64457;51.976;9.834;2023-07-29T08:22:50;4.70;;;1.30;;
75823;SDS011;64457;51.976;9.834;2023-07-29T08:25:17;5.00;;;1.23;;
75823;SDS011;64457;51.976;9.834;2023-07-29T08:27:46;4.60;;;1.17;;
75823;SDS011;64457;51.976;9.834;2023-07-29T08:30:14;5.07;;;1.50;;
75823;SDS011;64457;51.976;9.834;2023-07-29T08:32:44;5.00;;;1.43;;
75823;SDS011;64457;51.976;9.834;2023-07-29T08:35:11;6.70;;;1.80;;
75823;SDS011;64457;51.976;9.834;2023-07-29T08:37:39;6.87;;;1.57;;
75823;SDS011;64457;51.976;9.834;2023-07-29T08:40:12;5.30;;;1.50;;
75823;SDS011;64457;51.976;9.834;2023-07-29T08:42:40;5.60;;;1.83;;
75823;SDS011;64457;51.976;9.834;2023-07-29T08:45:12;5.77;;;1.87;;
75823;SDS011;64457;51.976;9.834;2023-07-29T08:47:42;6.37;;;1.57;;
75823;SDS011;64457;51.976;9.834;2023-07-29T08:50:13;5.13;;;1.53;;
75823;SDS011;64457;51.976;9.834;2023-07-29T08:52:42;5.83;;;2.00;;
75823;SDS011;64457;51.976;9.834;2023-07-29T08:55:11;6.10;;;2.10;;
75823;SDS011;64457;51.976;9.834;2023-07-29T08:57:39;5.93;;;2.07;;
75823;SDS011;64457;51.976;9.834;2023-07-29T09:00:07;5.80;;;2.13;;
75823;SDS011;64457;51.976;9.834;2023-07-29T09:02:41;5.40;;;1.70;;
75823;SDS011;64457;51.976;9.834;2023-07-29T09:05:12;16.23;;;1.70;;
75823;SDS011;64457;51.976;9.834;2023-07-29T09:07:53;4.90;;;1.60;;
75823;SDS011;64457;51.976;9.834;2023-07-29T09:10:23;5.67;;;1.50;;
75823;SDS011;64457;51.976;9.834;2023-07-29T09:12:55;5.00;;;1.30;;
75823;SDS011;64457;51.976;9.834;2023-07-29T09:15:28;5.50;;;1.57;;
75823;SDS011;64457;51.976;9.834;2023-07-29T09:17:57;5.50;;;1.73;;
75823;SDS011;64457;51.976;9.834;2023-07-29T09:20:25;5.83;;;2.00;;
75823;SDS011;64457;51.976;9.834;2023-07-29T09:22:54;5.47;;;1.80;;
75823;SDS011;64457;51.976;9.834;2023-07-29T09:25:28;7.77;;;2.70;;
75823;SDS011;64457;51.976;9.834;2023-07-29T09:27:58;7.80;;;2.20;;
75823;SDS011;64457;51.976;9.834;2023-07-29T09:30:28;7.30;;;2.47;;
75823;SDS011;64457;51.976;9.834;2023-07-29T09:32:55;6.77;;;2.70;;
75823;SDS011;64457;51.976;9.834;2023-07-29T09:35:23;6.43;;;2.50;;
75823;SDS011;64457;51.976;9.834;2023-07-29T09:37:53;5.80;;;2.27;;
75823;SDS011;64457;51.976;9.834;2023-07-29T09:40:20;6.17;;;2.53;;
75823;SDS011;64457;51.976;9.834;2023-07-29T09:42:48;6.87;;;2.20;;
75823;SDS011;64457;51.976;9.834;2023-07-29T09:45:20;5.90;;;2.10;;
75823;SDS011;64457;51.976;9.834;2023-07-29T09:47:51;5.90;;;2.10;;
75823;SDS011;64457;51.976;9.834;2023-07-29T09:50:24;5.60;;;2.40;;
75823;SDS011;64457;51.976;9.834;2023-07-29T09:52:53;5.60;;;2.60;;
75823;SDS011;64457;51.976;9.834;2023-07-29T09:55:24;6.83;;;3.00;;
75823;SDS011;64457;51.976;9.834;2023-07-29T09:57:53;7.63;;;3.87;;
75823;SDS011;64457;51.976;9.834;2023-07-29T10:00:23;8.40;;;4.30;;
75823;SDS011;64457;51.976;9.834;2023-07-29T10:02:52;9.07;;;4.20;;
75823;SDS011;64457;51.976;9.834;2023-07-29T10:05:21;8.63;;;4.33;;
75823;SDS011;64457;51.976;9.834;2023-07-29T10:07:52;8.97;;;4.43;;
75823;SDS011;64457;51.976;9.834;2023-07-29T10:10:24;8.73;;;4.63;;
75823;SDS011;64457;51.976;9.834;2023-07-29T10:12:53;8.77;;;5.17;;
75823;SDS011;64457;51.976;9.834;2023-07-29T10:15:22;9.00;;;5.23;;
75823;SDS011;64457;51.976;9.834;2023-07-29T10:17:50;8.80;;;4.87;;
75823;SDS011;64457;51.976;9.834;2023-07-29T10:20:20;8.93;;;5.27;;
75823;SDS011;64457;51.976;9.834;2023-07-29T10:22:51;9.10;;;5.30;;
75823;SDS011;64457;51.976;9.834;2023-07-29T10:25:25;10.43;;;6.00;;
75823;SDS011;64457;51.976;9.834;2023-07-29T10:28:05;14.53;;;6.23;;
75823;SDS011;64457;51.976;9.834;2023-07-29T10:30:35;8.97;;;5.37;;
75823;SDS011;64457;51.976;9.834;2023-07-29T10:33:10;9.40;;;5.67;;
75823;SDS011;64457;51.976;9.834;2023-07-29T10:35:38;12.03;;;5.77;;
75823;SDS011;64457;51.976;9.834;2023-07-29T10:38:10;9.70;;;5.73;;
75823;SDS011;64457;51.976;9.834;2023-07-29T10:40:46;9.17;;;5.00;;
75823;SDS011;64457;51.976;9.834;2023-07-29T10:43:18;9.17;;;5.10;;
75823;SDS011;64457;51.976;9.834;2023-07-29T10:45:51;10.33;;;5.17;;
75823;SDS011;64457;51.976;9.834;2023-07-29T10:51:23;9.47;;;5.10;;
75823;SDS011;64457;51.976;9.834;2023-07-29T10:53:56;9.67;;;5.57;;
75823;SDS011;64457;51.976;9.834;2023-07-29T10:56:27;10.90;;;5.17;;
75823;SDS011;64457;51.976;9.834;2023-07-29T10:59:02;7.87;;;4.70;;
75823;SDS011;64457;51.976;9.834;2023-07-29T11:02:01;9.30;;;4.70;;
75823;SDS011;64457;51.976;9.834;2023-07-29T11:04:47;8.40;;;5.07;;
75823;SDS011;64457;51.976;9.834;2023-07-29T11:07:26;10.53;;;5.23;;
75823;SDS011;64457;51.976;9.834;2023-07-29T11:09:54;8.20;;;4.50;;
75823;SDS011;64457;51.976;9.834;2023-07-29T11:12:33;8.70;;;4.77;;
75823;SDS011;64457;51.976;9.834;2023-07-29T11:15:15;7.23;;;4.30;;
75823;SDS011;64457;51.976;9.834;2023-07-29T11:17:46;7.63;;;4.10;;
75823;SDS011;64457;51.976;9.834;2023-07-29T11:20:16;8.53;;;4.27;;
75823;SDS011;64457;51.976;9.834;2023-07-29T11:22:49;7.60;;;4.10;;
75823;SDS011;64457;51.976;9.834;2023-07-29T11:25:22;7.30;;;3.93;;
75823;SDS011;64457;51.976;9.834;2023-07-29T11:27:52;6.60;;;3.30;;
75823;SDS011;64457;51.976;9.834;2023-07-29T11:30:30;6.53;;;3.33;;
75823;SDS011;64457;51.976;9.834;2023-07-29T11:33:01;6.97;;;3.40;;
75823;SDS011;64457;51.976;9.834;2023-07-29T11:35:31;7.03;;;3.03;;
75823;SDS011;64457;51.976;9.834;2023-07-29T11:38:05;5.90;;;3.20;;
75823;SDS011;64457;51.976;9.834;2023-07-29T11:40:33;6.03;;;2.50;;
75823;SDS011;64457;51.976;9.834;2023-07-29T11:43:01;5.90;;;2.50;;
75823;SDS011;64457;51.976;9.834;2023-07-29T11:45:29;5.57;;;2.67;;
75823;SDS011;64457;51.976;9.834;2023-07-29T11:47:57;5.83;;;2.20;;
75823;SDS011;64457;51.976;9.834;2023-07-29T11:50:29;5.83;;;2.23;;
75823;SDS011;64457;51.976;9.834;2023-07-29T11:52:59;4.50;;;1.70;;
75823;SDS011;64457;51.976;9.834;2023-07-29T11:55:29;4.60;;;1.70;;
75823;SDS011;64457;51.976;9.834;2023-07-29T11:57:58;4.53;;;1.53;;
75823;SDS011;64457;51.976;9.834;2023-07-29T12:00:28;4.50;;;1.60;;
75823;SDS011;64457;51.976;9.834;2023-07-29T12:02:56;5.30;;;1.70;;
75823;SDS011;64457;51.976;9.834;2023-07-29T12:05:25;4.97;;;1.67;;
75823;SDS011;64457;51.976;9.834;2023-07-29T12:07:56;6.10;;;1.60;;
75823;SDS011;64457;51.976;9.834;2023-07-29T12:10:25;5.97;;;1.83;;
75823;SDS011;64457;51.976;9.834;2023-07-29T12:12:54;6.53;;;1.80;;
75823;SDS011;64457;51.976;9.834;2023-07-29T12:15:23;5.37;;;1.30;;
75823;SDS011;64457;51.976;9.834;2023-07-29T12:17:55;4.27;;;1.37;;
75823;SDS011;64457;51.976;9.834;2023-07-29T12:20:23;4.23;;;1.13;;
75823;SDS011;64457;51.976;9.834;2023-07-29T12:22:59;4.20;;;1.20;;
75823;SDS011;64457;51.976;9.834;2023-07-29T12:25:31;4.57;;;1.20;;
75823;SDS011;64457;51.976;9.834;2023-07-29T12:28:04;6.70;;;1.43;;
75823;SDS011;64457;51.976;9.834;2023-07-29T12:30:41;4.40;;;1.30;;
75823;SDS011;64457;51.976;9.834;2023-07-29T12:33:09;5.27;;;1.40;;
75823;SDS011;64457;51.976;9.834;2023-07-29T12:35:37;3.87;;;0.97;;
75823;SDS011;64457;51.976;9.834;2023-07-29T12:38:06;4.13;;;0.97;;
75823;SDS011;64457;51.976;9.834;2023-07-29T12:40:37;4.67;;;1.10;;
75823;SDS011;64457;51.976;9.834;2023-07-29T12:43:07;3.77;;;0.90;;
75823;SDS011;64457;51.976;9.834;2023-07-29T12:45:37;3.90;;;1.00;;
75823;SDS011;64457;51.976;9.834;2023-07-29T12:48:06;4.00;;;0.90;;
75823;SDS011;64457;51.976;9.834;2023-07-29T12:50:34;3.70;;;0.90;;
75823;SDS011;64457;51.976;9.834;2023-07-29T12:53:01;4.30;;;0.90;;
75823;SDS011;64457;51.976;9.834;2023-07-29T12:55:30;3.87;;;1.10;;
75823;SDS011;64457;51.976;9.834;2023-07-29T12:57:57;3.70;;;0.87;;
75823;SDS011;64457;51.976;9.834;2023-07-29T13:00:26;4.20;;;1.00;;
75823;SDS011;64457;51.976;9.834;2023-07-29T13:02:53;4.13;;;0.90;;
75823;SDS011;64457;51.976;9.834;2023-07-29T13:05:21;5.07;;;1.07;;
75823;SDS011;64457;51.976;9.834;2023-07-29T13:07:49;4.00;;;0.80;;
75823;SDS011;64457;51.976;9.834;2023-07-29T13:10:17;5.03;;;0.90;;
75823;SDS011;64457;51.976;9.834;2023-07-29T13:12:46;3.97;;;1.10;;
75823;SDS011;64457;51.976;9.834;2023-07-29T13:15:14;5.30;;;1.20;;
75823;SDS011;64457;51.976;9.834;2023-07-29T13:17:42;3.40;;;0.80;;
75823;SDS011;64457;51.976;9.834;2023-07-29T13:20:10;3.80;;;0.97;;
75823;SDS011;64457;51.976;9.834;2023-07-29T13:22:38;4.10;;;1.17;;
75823;SDS011;64457;51.976;9.834;2023-07-29T13:25:08;4.30;;;1.13;;
75823;SDS011;64457;51.976;9.834;2023-07-29T13:27:36;4.40;;;1.17;;
75823;SDS011;64457;51.976;9.834;2023-07-29T13:30:06;4.53;;;1.10;;
75823;SDS011;64457;51.976;9.834;2023-07-29T13:32:35;4.40;;;1.13;;
75823;SDS011;64457;51.976;9.834;2023-07-29T13:35:03;4.30;;;1.10;;
75823;SDS011;64457;51.976;9.834;2023-07-29T13:37:32;3.57;;;1.17;;
75823;SDS011;64457;51.976;9.834;2023-07-29T13:39:59;4.00;;;1.30;;
75823;SDS011;64457;51.976;9.834;2023-07-29T13:42:27;5.80;;;1.20;;
75823;SDS011;64457;51.976;9.834;2023-07-29T13:44:58;3.80;;;1.10;;
75823;SDS011;64457;51.976;9.834;2023-07-29T13:47:27;4.00;;;1.10;;
75823;SDS011;64457;51.976;9.834;2023-07-29T13:49:55;7.27;;;1.40;;
75823;SDS011;64457;51.976;9.834;2023-07-29T13:52:26;4.50;;;1.30;;
75823;SDS011;64457;51.976;9.834;2023-07-29T13:54:54;4.83;;;1.33;;
75823;SDS011;64457;51.976;9.834;2023-07-29T13:57:21;4.60;;;1.40;;
75823;SDS011;64457;51.976;9.834;2023-07-29T13:59:49;4.20;;;1.37;;
75823;SDS011;64457;51.976;9.834;2023-07-29T14:02:17;4.23;;;1.23;;
75823;SDS011;64457;51.976;9.834;2023-07-29T14:04:46;4.10;;;1.30;;
75823;SDS011;64457;51.976;9.834;2023-07-29T14:07:14;4.30;;;1.30;;
75823;SDS011;64457;51.976;9.834;2023-07-29T14:09:41;5.97;;;1.37;;
75823;SDS011;64457;51.976;9.834;2023-07-29T14:12:09;4.00;;;1.20;;
75823;SDS011;64457;51.976;9.834;2023-07-29T14:14:40;5.10;;;1.50;;
75823;SDS011;64457;51.976;9.834;2023-07-29T14:17:08;4.20;;;1.30;;
75823;SDS011;64457;51.976;9.834;2023-07-29T14:19:38;5.40;;;1.53;;
75823;SDS011;64457;51.976;9.834;2023-07-29T14:22:08;5.57;;;1.60;;
75823;SDS011;64457;51.976;9.834;2023-07-29T14:24:36;4.57;;;1.60;;
75823;SDS011;64457;51.976;9.834;2023-07-29T14:27:04;5.93;;;1.10;;
75823;SDS011;64457;51.976;9.834;2023-07-29T14:29:32;4.30;;;1.27;;
75823;SDS011;64457;51.976;9.834;2023-07-29T14:32:00;5.77;;;1.57;;
75823;SDS011;64457;51.976;9.834;2023-07-29T14:34:30;4.87;;;1.23;;
75823;SDS011;64457;51.976;9.834;2023-07-29T14:36:57;6.03;;;1.40;;
75823;SDS011;64457;51.976;9.834;2023-07-29T14:39:27;5.17;;;1.37;;
75823;SDS011;64457;51.976;9.834;2023-07-29T14:41:54;5.17;;;1.50;;
75823;SDS011;64457;51.976;9.834;2023-07-29T14:44:22;4.40;;;1.50;;
75823;SDS011;64457;51.976;9.834;2023-07-29T14:46:53;7.43;;;1.50;;
75823;SDS011;64457;51.976;9.834;2023-07-29T14:49:20;4.80;;;1.57;;
75823;SDS011;64457;51.976;9.834;2023-07-29T14:51:48;4.73;;;1.50;;
75823;SDS011;64457;51.976;9.834;2023-07-29T14:54:16;4.97;;;1.60;;
75823;SDS011;64457;51.976;9.834;2023-07-29T14:56:44;4.30;;;1.47;;
75823;SDS011;64457;51.976;9.834;2023-07-29T14:59:12;4.97;;;1.67;;
75823;SDS011;64457;51.976;9.834;2023-07-29T15:01:40;4.87;;;1.70;;
75823;SDS011;64457;51.976;9.834;2023-07-29T15:04:07;6.13;;;1.70;;
75823;SDS011;64457;51.976;9.834;2023-07-29T15:06:35;4.57;;;2.00;;
75823;SDS011;64457;51.976;9.834;2023-07-29T15:09:04;7.50;;;1.97;;
75823;SDS011;64457;51.976;9.834;2023-07-29T15:11:31;5.23;;;1.80;;